Time;durP1;ratioP1;P1;durP2;ratioP2;P2;SDS_P1;SDS_P2;PMS_P1;PMS_P2;Temp;Humidity;BMP_temperature;BMP_pressure;BME280_temperature;BME280_humidity;BME280_pressure;Samples;Min_cycle;Max_cycle;Signal;HPM_P1;HPM_P2
2022/01/21 00:02:04;0.00;0.00;0.62;0.00;0.00;0.62;1.87;0.97;;;21.00;27.50;;;;;;2246258;61;20440;-62
2022/01/21 00:04:50;0.00;0.00;0.62;0.00;0.00;0.62;2.40;1.10;;;21.00;27.40;;;;;;2245570;61;20392;-61
2022/01/21 00:07:34;0.00;0.00;0.62;0.00;0.00;0.62;1.90;1.10;;;21.00;27.40;;;;;;2245574;61;20369;-61
2022/01/21 00:10:19;0.00;0.00;0.62;0.00;0.00;0.62;2.37;1.17;;;21.00;27.30;;;;;;2245897;61;20369;-61
2022/01/21 00:13:13;0.00;0.00;0.62;0.00;0.00;0.62;2.40;1.10;;;21.00;27.30;;;;;;2245456;61;20436;-61
2022/01/21 00:15:58;0.00;0.00;0.62;0.00;0.00;0.62;1.97;1.17;;;21.00;27.30;;;;;;2245952;61;20365;-61
2022/01/21 00:18:51;0.00;0.00;0.62;0.00;0.00;0.62;1.60;0.80;;;21.00;27.30;;;;;;2245577;61;20365;-62
2022/01/21 00:31:02;0.00;0.00;0.62;0.00;0.00;0.62;3.83;1.00;;;20.90;27.20;;;;;;2246074;61;20522;-62
2022/01/21 00:33:46;0.00;0.00;0.62;0.00;0.00;0.62;3.43;1.30;;;20.90;27.20;;;;;;2245641;61;20429;-61
2022/01/21 00:36:32;0.00;0.00;0.62;0.00;0.00;0.62;1.67;1.27;;;20.80;27.20;;;;;;2245304;61;20438;-62
2022/01/21 00:39:22;0.00;0.00;0.62;0.00;0.00;0.62;2.50;1.00;;;20.80;27.10;;;;;;2245241;61;20704;-60
2022/01/21 00:45:13;0.00;0.00;0.62;0.00;0.00;0.62;2.67;1.67;;;20.70;26.90;;;;;;2245531;61;20570;-60
2022/01/21 00:47:57;0.00;0.00;0.62;0.00;0.00;0.62;2.83;1.50;;;20.70;26.80;;;;;;2245668;61;20414;-62
2022/01/21 00:50:42;0.00;0.00;0.62;0.00;0.00;0.62;2.10;1.13;;;20.70;26.80;;;;;;2245143;61;20445;-62
2022/01/21 00:53:26;0.00;0.00;0.62;0.00;0.00;0.62;3.87;2.00;;;20.70;26.80;;;;;;2245010;61;20391;-61
2022/01/21 00:56:12;0.00;0.00;0.62;0.00;0.00;0.62;3.27;1.47;;;20.60;26.60;;;;;;2241604;62;20369;-61
2022/01/21 00:58:57;0.00;0.00;0.62;0.00;0.00;0.62;4.03;1.60;;;20.60;26.60;;;;;;2240610;62;20365;-62
2022/01/21 01:01:42;0.00;0.00;0.62;0.00;0.00;0.62;2.90;1.50;;;20.60;26.60;;;;;;2241319;62;20450;-61
2022/01/21 01:04:27;0.00;0.00;0.62;0.00;0.00;0.62;3.70;2.20;;;20.50;26.50;;;;;;2241688;62;20359;-61
2022/01/21 01:07:11;0.00;0.00;0.62;0.00;0.00;0.62;2.87;1.40;;;20.50;26.30;;;;;;2241251;62;20382;-61
2022/01/21 01:09:57;0.00;0.00;0.62;0.00;0.00;0.62;4.00;1.80;;;20.50;26.20;;;;;;2241514;62;20359;-59
2022/01/21 01:21:42;0.00;0.00;0.62;0.00;0.00;0.62;3.07;1.93;;;20.20;25.60;;;;;;2241113;62;20601;-61
2022/01/21 01:27:41;0.00;0.00;0.62;0.00;0.00;0.62;3.30;1.57;;;20.20;25.60;;;;;;2240921;62;20362;-60
2022/01/21 01:30:31;0.00;0.00;0.62;0.00;0.00;0.62;3.30;2.00;;;20.10;25.60;;;;;;2242100;62;20366;-61
2022/01/21 01:33:22;0.00;0.00;0.62;0.00;0.00;0.62;3.50;1.80;;;20.10;25.60;;;;;;2241271;62;20417;-61
2022/01/21 01:36:09;0.00;0.00;0.62;0.00;0.00;0.62;5.63;1.83;;;20.00;25.60;;;;;;2240799;62;20422;-61
2022/01/21 01:42:31;0.00;0.00;0.62;0.00;0.00;0.62;4.10;2.00;;;20.00;25.60;;;;;;2241650;62;20454;-61
2022/01/21 01:51:13;0.00;0.00;0.62;0.00;0.00;0.62;3.87;1.60;;;19.80;25.20;;;;;;2241138;62;20766;-61
2022/01/21 01:54:05;0.00;0.00;0.62;0.00;0.00;0.62;4.47;2.00;;;19.80;25.30;;;;;;2243646;61;20389;-61
2022/01/21 01:56:53;0.00;0.00;0.62;0.00;0.00;0.62;6.87;2.27;;;19.70;25.30;;;;;;2245480;61;20358;-61
2022/01/21 01:59:38;0.00;0.00;0.62;0.00;0.00;0.62;3.60;1.80;;;19.70;25.40;;;;;;2245549;61;20374;-61
2022/01/21 02:02:23;0.00;0.00;0.62;0.00;0.00;0.62;3.63;1.70;;;19.70;25.40;;;;;;2245308;61;20610;-61
2022/01/21 02:05:09;0.00;0.00;0.62;0.00;0.00;0.62;3.07;1.30;;;19.60;25.30;;;;;;2244781;61;20393;-60
2022/01/21 02:07:54;0.00;0.00;0.62;0.00;0.00;0.62;3.40;2.10;;;19.60;25.30;;;;;;2245937;61;20453;-61
2022/01/21 02:10:40;0.00;0.00;0.62;0.00;0.00;0.62;2.60;1.60;;;19.60;25.30;;;;;;2244998;61;20365;-61
2022/01/21 02:13:31;0.00;0.00;0.62;0.00;0.00;0.62;2.43;1.33;;;19.60;25.30;;;;;;2245045;61;20405;-61
2022/01/21 02:22:16;0.00;0.00;0.62;0.00;0.00;0.62;2.90;1.60;;;19.50;25.20;;;;;;2245541;61;20643;-61
2022/01/21 02:25:15;0.00;0.00;0.62;0.00;0.00;0.62;3.30;1.40;;;19.40;25.10;;;;;;2244751;61;20353;-61
2022/01/21 02:28:00;0.00;0.00;0.62;0.00;0.00;0.62;3.33;1.63;;;19.40;25.20;;;;;;2244427;61;20386;-61
2022/01/21 02:30:54;0.00;0.00;0.62;0.00;0.00;0.62;3.73;1.80;;;19.30;25.10;;;;;;2245109;61;20377;-61
2022/01/21 02:33:39;0.00;0.00;0.62;0.00;0.00;0.62;4.20;1.87;;;19.30;25.10;;;;;;2244982;61;20422;-61
2022/01/21 02:36:25;0.00;0.00;0.62;0.00;0.00;0.62;4.47;1.97;;;19.30;25.10;;;;;;2245059;61;20358;-62
2022/01/21 02:39:11;0.00;0.00;0.62;0.00;0.00;0.62;4.10;1.80;;;19.20;25.10;;;;;;2244596;61;20733;-62
2022/01/21 02:41:56;0.00;0.00;0.62;0.00;0.00;0.62;3.30;1.73;;;19.20;25.10;;;;;;2244370;61;20394;-61
2022/01/21 02:44:41;0.00;0.00;0.62;0.00;0.00;0.62;2.27;1.20;;;19.20;25.10;;;;;;2245302;61;20362;-60
2022/01/21 02:47:25;0.00;0.00;0.62;0.00;0.00;0.62;3.10;1.27;;;19.10;25.00;;;;;;2245245;61;20499;-61
2022/01/21 02:50:16;0.00;0.00;0.62;0.00;0.00;0.62;4.60;1.87;;;19.10;25.00;;;;;;2244422;61;20726;-61
2022/01/21 02:53:27;0.00;0.00;0.62;0.00;0.00;0.62;5.13;2.20;;;19.10;25.10;;;;;;2244466;61;20398;-61
2022/01/21 02:56:16;0.00;0.00;0.62;0.00;0.00;0.62;2.47;1.53;;;19.10;25.10;;;;;;2472591;54;20370;-61
2022/01/21 02:59:02;0.00;0.00;0.62;0.00;0.00;0.62;4.40;2.33;;;19.00;25.00;;;;;;2241714;62;20361;-61
2022/01/21 03:01:49;0.00;0.00;0.62;0.00;0.00;0.62;5.03;2.13;;;19.00;25.10;;;;;;2240778;62;20390;-61
2022/01/21 03:04:43;0.00;0.00;0.62;0.00;0.00;0.62;2.93;1.40;;;19.00;25.10;;;;;;2240814;62;20759;-61
2022/01/21 03:07:28;0.00;0.00;0.62;0.00;0.00;0.62;2.03;1.37;;;19.00;25.20;;;;;;2241343;62;20758;-61
2022/01/21 03:10:14;0.00;0.00;0.62;0.00;0.00;0.62;3.20;1.57;;;19.00;25.20;;;;;;2243525;61;20410;-61
2022/01/21 03:13:00;0.00;0.00;0.62;0.00;0.00;0.62;3.50;1.80;;;19.00;25.30;;;;;;2243284;61;20386;-62
2022/01/21 03:15:45;0.00;0.00;0.62;0.00;0.00;0.62;3.23;1.70;;;19.00;25.30;;;;;;2243465;61;20484;-60
2022/01/21 03:18:30;0.00;0.00;0.62;0.00;0.00;0.62;4.20;2.00;;;19.00;25.30;;;;;;2243307;61;20370;-62
2022/01/21 03:21:17;0.00;0.00;0.62;0.00;0.00;0.62;5.00;1.47;;;19.00;25.30;;;;;;2241111;62;20382;-61
2022/01/21 03:24:02;0.00;0.00;0.62;0.00;0.00;0.62;2.17;1.30;;;19.00;25.30;;;;;;2240874;62;20581;-60
2022/01/21 03:26:47;0.00;0.00;0.62;0.00;0.00;0.62;2.40;1.40;;;18.90;25.30;;;;;;2240265;62;20366;-62
2022/01/21 03:29:33;0.00;0.00;0.62;0.00;0.00;0.62;3.67;1.60;;;18.90;25.30;;;;;;2243566;61;20401;-60
2022/01/21 03:32:19;0.00;0.00;0.62;0.00;0.00;0.62;4.03;1.43;;;18.90;25.30;;;;;;2243631;61;20612;-62
2022/01/21 03:35:05;0.00;0.00;0.62;0.00;0.00;0.62;2.80;1.53;;;18.90;25.20;;;;;;2243211;61;20366;-60
2022/01/21 03:37:49;0.00;0.00;0.62;0.00;0.00;0.62;2.73;1.57;;;18.90;25.20;;;;;;2240721;62;20587;-61
2022/01/21 03:40:35;0.00;0.00;0.62;0.00;0.00;0.62;3.13;1.60;;;18.80;25.10;;;;;;2240811;62;20444;-60
2022/01/21 03:43:22;0.00;0.00;0.62;0.00;0.00;0.62;5.60;1.97;;;18.80;25.00;;;;;;2243819;61;20469;-60
2022/01/21 03:46:08;0.00;0.00;0.62;0.00;0.00;0.62;2.80;1.47;;;18.80;25.00;;;;;;2241252;62;20366;-60
2022/01/21 03:48:53;0.00;0.00;0.62;0.00;0.00;0.62;4.13;1.70;;;18.80;25.00;;;;;;2240073;62;20362;-62
2022/01/21 03:51:38;0.00;0.00;0.62;0.00;0.00;0.62;5.83;1.97;;;18.70;24.90;;;;;;2243571;61;20431;-61
2022/01/21 03:54:23;0.00;0.00;0.62;0.00;0.00;0.62;3.63;2.07;;;18.70;24.80;;;;;;2243555;61;20441;-61
2022/01/21 03:57:09;0.00;0.00;0.62;0.00;0.00;0.62;3.23;1.27;;;18.70;24.80;;;;;;2240390;62;20393;-61
2022/01/21 03:59:53;0.00;0.00;0.62;0.00;0.00;0.62;2.13;1.20;;;18.70;24.90;;;;;;2240835;62;20626;-61
2022/01/21 04:02:39;0.00;0.00;0.62;0.00;0.00;0.62;4.47;1.23;;;18.60;24.90;;;;;;2241339;62;20624;-61
2022/01/21 04:05:24;0.00;0.00;0.62;0.00;0.00;0.62;4.03;1.80;;;18.60;24.90;;;;;;2240814;62;20362;-62
2022/01/21 04:08:12;0.00;0.00;0.62;0.00;0.00;0.62;3.43;1.67;;;18.60;25.00;;;;;;2240719;62;20609;-60
2022/01/21 04:10:58;0.00;0.00;0.62;0.00;0.00;0.62;3.63;1.30;;;18.60;25.00;;;;;;2239960;62;20390;-61
2022/01/21 04:13:45;0.00;0.00;0.62;0.00;0.00;0.62;5.87;2.27;;;18.60;25.00;;;;;;2241516;62;20379;-62
2022/01/21 04:16:33;0.00;0.00;0.62;0.00;0.00;0.62;2.77;1.27;;;18.50;24.80;;;;;;2240907;62;20358;-61
2022/01/21 04:19:19;0.00;0.00;0.62;0.00;0.00;0.62;4.80;1.83;;;18.50;24.80;;;;;;2240226;62;20417;-61
2022/01/21 04:22:04;0.00;0.00;0.62;0.00;0.00;0.62;4.00;1.83;;;18.50;24.80;;;;;;2241143;62;20598;-61
2022/01/21 04:24:51;0.00;0.00;0.62;0.00;0.00;0.62;5.27;1.70;;;18.40;24.80;;;;;;2241182;62;20577;-59
2022/01/21 04:27:36;0.00;0.00;0.62;0.00;0.00;0.62;5.07;1.50;;;18.40;24.80;;;;;;2240911;62;20383;-60
2022/01/21 04:30:20;0.00;0.00;0.62;0.00;0.00;0.62;2.57;1.43;;;18.40;24.80;;;;;;2241283;61;20623;-59
2022/01/21 04:33:06;0.00;0.00;0.62;0.00;0.00;0.62;3.57;1.60;;;18.40;24.90;;;;;;2236740;61;20478;-59
2022/01/21 04:35:53;0.00;0.00;0.62;0.00;0.00;0.62;2.67;1.10;;;18.40;25.40;;;;;;2241236;62;20370;-60
2022/01/21 04:49:13;0.00;0.00;0.62;0.00;0.00;0.62;5.90;1.50;;;18.30;24.80;;;;;;2240857;62;20434;-60
2022/01/21 04:52:02;0.00;0.00;0.62;0.00;0.00;0.62;4.80;1.63;;;18.20;25.30;;;;;;2241013;62;20431;-61
2022/01/21 04:54:59;0.00;0.00;0.62;0.00;0.00;0.62;2.60;1.63;;;18.20;24.80;;;;;;2241686;61;20401;-59
2022/01/21 04:57:47;0.00;0.00;0.62;0.00;0.00;0.62;3.83;1.43;;;18.10;24.70;;;;;;2241732;62;20715;-61
2022/01/21 05:00:38;0.00;0.00;0.62;0.00;0.00;0.62;3.10;1.27;;;18.20;24.70;;;;;;2241266;62;20447;-61
2022/01/21 05:03:24;0.00;0.00;0.62;0.00;0.00;0.62;6.47;1.67;;;18.10;24.70;;;;;;2240798;62;20574;-61
2022/01/21 05:06:10;0.00;0.00;0.62;0.00;0.00;0.62;3.80;1.30;;;18.10;24.70;;;;;;2241903;62;20370;-61
2022/01/21 05:08:57;0.00;0.00;0.62;0.00;0.00;0.62;4.73;1.60;;;18.10;24.80;;;;;;2241363;62;20363;-61
2022/01/21 05:11:48;0.00;0.00;0.62;0.00;0.00;0.62;7.90;1.80;;;18.10;24.90;;;;;;2238276;62;20390;-61
2022/01/21 05:17:48;0.00;0.00;0.62;0.00;0.00;0.62;4.03;1.40;;;18.10;24.90;;;;;;2240625;62;20366;-62
2022/01/21 05:20:35;0.00;0.00;0.62;0.00;0.00;0.62;3.00;1.50;;;18.10;25.00;;;;;;2241406;62;20613;-61
2022/01/21 05:23:30;0.00;0.00;0.62;0.00;0.00;0.62;2.37;1.10;;;18.00;24.80;;;;;;2241027;62;20422;-62
2022/01/21 05:26:17;0.00;0.00;0.62;0.00;0.00;0.62;5.07;1.57;;;18.00;24.80;;;;;;2241119;62;20750;-61
2022/01/21 05:29:01;0.00;0.00;0.62;0.00;0.00;0.62;6.27;1.63;;;18.00;24.90;;;;;;2241080;62;20371;-61
2022/01/21 05:32:07;0.00;0.00;0.62;0.00;0.00;0.62;2.73;1.20;;;18.00;25.00;;;;;;2241209;62;20769;-61
2022/01/21 05:34:58;0.00;0.00;0.62;0.00;0.00;0.62;2.50;1.17;;;18.00;25.10;;;;;;2251061;58;20438;-61
2022/01/21 05:37:53;0.00;0.00;0.62;0.00;0.00;0.62;2.17;1.13;;;18.00;25.20;;;;;;2244689;61;20369;-61
2022/01/21 05:40:58;0.00;0.00;0.62;0.00;0.00;0.62;2.10;1.23;;;18.00;25.20;;;;;;2240601;62;20607;-60
2022/01/21 05:47:12;0.00;0.00;0.62;0.00;0.00;0.62;3.47;1.33;;;18.00;25.20;;;;;;2336040;56;20624;-59
2022/01/21 05:50:20;0.00;0.00;0.62;0.00;0.00;0.62;4.40;1.87;;;18.00;25.20;;;;;;2233454;62;20650;-62
2022/01/21 05:53:18;0.00;0.00;0.62;0.00;0.00;0.62;1.83;1.20;;;18.00;25.20;;;;;;2228530;62;20458;-61
2022/01/21 05:56:24;0.00;0.00;0.62;0.00;0.00;0.62;2.37;0.90;;;18.00;25.20;;;;;;2226983;62;20773;-61
2022/01/21 05:59:22;0.00;0.00;0.62;0.00;0.00;0.62;3.40;1.17;;;18.00;25.20;;;;;;2226097;62;20423;-61
2022/01/21 06:02:08;0.00;0.00;0.62;0.00;0.00;0.62;2.30;0.90;;;18.00;25.20;;;;;;2225236;62;20377;-60
2022/01/21 06:04:55;0.00;0.00;0.62;0.00;0.00;0.62;3.60;1.43;;;18.00;25.10;;;;;;2226406;62;20362;-61
2022/01/21 06:07:41;0.00;0.00;0.62;0.00;0.00;0.62;2.23;1.00;;;18.00;24.70;;;;;;2225511;62;20385;-60
2022/01/21 06:10:26;0.00;0.00;0.62;0.00;0.00;0.62;4.53;1.23;;;17.90;24.60;;;;;;2225081;62;20369;-60
2022/01/21 06:13:15;0.00;0.00;0.62;0.00;0.00;0.62;3.83;1.30;;;17.90;24.80;;;;;;2225972;62;20397;-59
2022/01/21 06:16:00;0.00;0.00;0.62;0.00;0.00;0.62;3.10;1.47;;;17.90;24.90;;;;;;2224304;62;20369;-60
2022/01/21 06:18:45;0.00;0.00;0.62;0.00;0.00;0.62;2.17;0.90;;;17.90;25.10;;;;;;2226159;62;20366;-61
2022/01/21 06:21:31;0.00;0.00;0.62;0.00;0.00;0.62;2.43;0.80;;;17.90;25.10;;;;;;2228644;62;20752;-60
2022/01/21 06:24:15;0.00;0.00;0.62;0.00;0.00;0.62;2.33;1.03;;;18.00;25.20;;;;;;2228721;62;20380;-60
2022/01/21 06:27:02;0.00;0.00;0.62;0.00;0.00;0.62;2.53;1.13;;;18.00;25.20;;;;;;2229847;62;20393;-60
2022/01/21 06:29:47;0.00;0.00;0.62;0.00;0.00;0.62;1.60;0.93;;;18.00;25.20;;;;;;2229941;62;20412;-60
2022/01/21 06:32:31;0.00;0.00;0.62;0.00;0.00;0.62;3.83;1.10;;;18.00;25.70;;;;;;2229142;62;20368;-62
2022/01/21 06:35:16;0.00;0.00;0.62;0.00;0.00;0.62;2.00;1.10;;;18.10;25.30;;;;;;2229679;62;20365;-60
2022/01/21 06:38:03;0.00;0.00;0.62;0.00;0.00;0.62;2.13;1.00;;;18.10;25.30;;;;;;2229189;62;20392;-61
2022/01/21 06:40:49;0.00;0.00;0.62;0.00;0.00;0.62;2.03;1.00;;;18.10;25.30;;;;;;2230163;62;20414;-60
2022/01/21 06:43:34;0.00;0.00;0.62;0.00;0.00;0.62;2.30;1.27;;;18.10;25.30;;;;;;2229679;62;20362;-60
2022/01/21 06:46:18;0.00;0.00;0.62;0.00;0.00;0.62;1.97;1.03;;;18.20;25.30;;;;;;2228347;62;20392;-60
2022/01/21 06:49:03;0.00;0.00;0.62;0.00;0.00;0.62;2.27;1.10;;;18.20;25.30;;;;;;2230188;62;20508;-60
2022/01/21 06:51:47;0.00;0.00;0.62;0.00;0.00;0.62;2.13;0.90;;;18.20;25.30;;;;;;2229809;62;20365;-60
2022/01/21 06:54:33;0.00;0.00;0.62;0.00;0.00;0.62;2.37;1.03;;;18.20;25.30;;;;;;2226764;62;20471;-60
2022/01/21 06:57:18;0.00;0.00;0.62;0.00;0.00;0.62;1.57;0.90;;;18.30;25.40;;;;;;2225849;62;20523;-60
2022/01/21 07:00:04;0.00;0.00;0.62;0.00;0.00;0.62;2.20;0.93;;;18.20;25.30;;;;;;2225504;62;20421;-60
2022/01/21 07:02:52;0.00;0.00;0.62;0.00;0.00;0.62;2.30;0.93;;;18.30;25.40;;;;;;2226257;62;20415;-59
2022/01/21 07:05:38;0.00;0.00;0.62;0.00;0.00;0.62;1.50;0.80;;;18.30;25.40;;;;;;2225681;62;20442;-60
2022/01/21 07:08:22;0.00;0.00;0.62;0.00;0.00;0.62;2.03;1.00;;;18.30;25.40;;;;;;2224664;62;20369;-61
2022/01/21 07:11:08;0.00;0.00;0.62;0.00;0.00;0.62;1.97;0.77;;;18.30;25.40;;;;;;2226295;62;20439;-59
2022/01/21 07:13:53;0.00;0.00;0.62;0.00;0.00;0.62;1.97;1.27;;;18.30;25.40;;;;;;2225906;62;20749;-60
2022/01/21 07:16:37;0.00;0.00;0.62;0.00;0.00;0.62;1.70;0.80;;;18.40;25.50;;;;;;2224691;62;20462;-59
2022/01/21 07:19:22;0.00;0.00;0.62;0.00;0.00;0.62;2.83;1.10;;;18.40;25.50;;;;;;2225186;62;21397;-59
2022/01/21 07:22:06;0.00;0.00;0.62;0.00;0.00;0.62;2.33;0.90;;;18.40;25.50;;;;;;2225598;62;20369;-59
2022/01/21 07:24:51;0.00;0.00;0.62;0.00;0.00;0.62;1.60;0.87;;;18.40;25.50;;;;;;2225746;62;20476;-60
2022/01/21 07:27:37;0.00;0.00;0.62;0.00;0.00;0.62;2.00;0.80;;;18.40;25.50;;;;;;2225455;62;20389;-59
2022/01/21 07:30:21;0.00;0.00;0.62;0.00;0.00;0.62;1.47;0.70;;;18.50;25.50;;;;;;2224706;62;20366;-60
2022/01/21 07:33:06;0.00;0.00;0.62;0.00;0.00;0.62;1.87;0.77;;;18.50;25.50;;;;;;2226151;62;20411;-60
2022/01/21 07:35:50;0.00;0.00;0.62;0.00;0.00;0.62;1.80;0.80;;;18.50;25.50;;;;;;2225135;62;20382;-60
2022/01/21 07:38:38;0.00;0.00;0.62;0.00;0.00;0.62;1.70;0.90;;;18.50;25.50;;;;;;2224603;62;20407;-60
2022/01/21 07:41:23;0.00;0.00;0.62;0.00;0.00;0.62;1.97;0.80;;;18.50;25.50;;;;;;2226149;62;20406;-60
2022/01/21 07:44:12;0.00;0.00;0.62;0.00;0.00;0.62;2.50;0.90;;;18.50;25.50;;;;;;2225637;62;20523;-59
2022/01/21 07:46:56;0.00;0.00;0.62;0.00;0.00;0.62;1.50;0.90;;;18.50;25.50;;;;;;2225166;62;20454;-60
2022/01/21 07:49:42;0.00;0.00;0.62;0.00;0.00;0.62;2.97;1.00;;;18.60;25.60;;;;;;2225788;62;20419;-60
2022/01/21 07:52:27;0.00;0.00;0.62;0.00;0.00;0.62;1.60;0.90;;;18.60;25.60;;;;;;2224507;62;20454;-59
2022/01/21 07:55:12;0.00;0.00;0.62;0.00;0.00;0.62;2.07;0.80;;;18.60;25.60;;;;;;2228765;62;20408;-59
2022/01/21 07:57:57;0.00;0.00;0.62;0.00;0.00;0.62;1.40;0.87;;;18.60;25.60;;;;;;2229473;62;20390;-59
2022/01/21 08:00:44;0.00;0.00;0.62;0.00;0.00;0.62;2.07;0.93;;;18.60;25.60;;;;;;2228505;62;20400;-59
2022/01/21 08:03:28;0.00;0.00;0.62;0.00;0.00;0.62;2.10;0.90;;;18.60;25.60;;;;;;2229866;62;20372;-60
2022/01/21 08:06:13;0.00;0.00;0.62;0.00;0.00;0.62;1.70;0.70;;;18.70;25.70;;;;;;2229997;62;20430;-60
2022/01/21 08:08:59;0.00;0.00;0.62;0.00;0.00;0.62;1.50;0.80;;;18.70;25.70;;;;;;2229900;62;20390;-60
2022/01/21 08:11:44;0.00;0.00;0.62;0.00;0.00;0.62;1.70;0.80;;;18.70;25.70;;;;;;2555160;46;20446;-59
2022/01/21 08:14:29;0.00;0.00;0.62;0.00;0.00;0.62;1.23;0.70;;;18.70;25.70;;;;;;2228485;62;20403;-60
2022/01/21 08:17:15;0.00;0.00;0.62;0.00;0.00;0.62;1.70;0.80;;;18.70;25.70;;;;;;2234002;62;20388;-60
2022/01/21 08:20:00;0.00;0.00;0.62;0.00;0.00;0.62;2.33;0.83;;;18.70;25.70;;;;;;2233898;62;20724;-60
2022/01/21 08:22:48;0.00;0.00;0.62;0.00;0.00;0.62;1.50;0.90;;;18.70;25.70;;;;;;2232933;62;20588;-58
2022/01/21 08:26:47;0.00;0.00;0.62;0.00;0.00;0.62;1.50;0.70;;;18.70;25.70;;;;;;2234421;62;20719;-60
2022/01/21 08:29:32;0.00;0.00;0.62;0.00;0.00;0.62;1.43;0.70;;;18.80;25.80;;;;;;2233279;62;20356;-60
2022/01/21 08:32:20;0.00;0.00;0.62;0.00;0.00;0.62;1.80;0.73;;;18.80;25.80;;;;;;2234455;62;20516;-59
2022/01/21 08:35:07;0.00;0.00;0.62;0.00;0.00;0.62;1.67;0.80;;;18.80;25.80;;;;;;2234216;62;20396;-59
2022/01/21 08:37:52;0.00;0.00;0.62;0.00;0.00;0.62;1.57;0.80;;;18.80;25.80;;;;;;2232974;62;20399;-59
2022/01/21 08:40:37;0.00;0.00;0.62;0.00;0.00;0.62;1.50;0.83;;;18.80;25.80;;;;;;2234402;62;20413;-60
2022/01/21 08:43:22;0.00;0.00;0.62;0.00;0.00;0.62;1.63;0.80;;;18.80;25.80;;;;;;2234040;62;20364;-59
2022/01/21 08:46:06;0.00;0.00;0.62;0.00;0.00;0.62;2.00;0.97;;;18.80;25.80;;;;;;2233532;62;20368;-60
2022/01/21 08:48:52;0.00;0.00;0.62;0.00;0.00;0.62;1.40;0.70;;;18.90;25.80;;;;;;2234007;62;20380;-60
2022/01/21 08:51:48;0.00;0.00;0.62;0.00;0.00;0.62;1.60;0.70;;;18.90;25.80;;;;;;2232916;62;20591;-60
2022/01/21 08:54:32;0.00;0.00;0.62;0.00;0.00;0.62;1.50;0.70;;;18.90;25.80;;;;;;2230541;62;20437;-59
2022/01/21 08:57:17;0.00;0.00;0.62;0.00;0.00;0.62;1.50;0.80;;;18.90;25.80;;;;;;2230103;62;20438;-60
2022/01/21 09:00:03;0.00;0.00;0.62;0.00;0.00;0.62;1.97;1.00;;;18.90;25.80;;;;;;2229000;62;20422;-60
2022/01/21 09:02:48;0.00;0.00;0.62;0.00;0.00;0.62;1.73;0.60;;;18.90;25.80;;;;;;2230471;62;20782;-59
2022/01/21 09:05:51;0.00;0.00;0.62;0.00;0.00;0.62;1.93;0.67;;;18.90;25.80;;;;;;2229626;62;20614;-60
2022/01/21 09:08:38;0.00;0.00;0.62;0.00;0.00;0.62;1.60;0.90;;;18.90;25.80;;;;;;2230181;62;20394;-60
2022/01/21 09:11:59;0.00;0.00;0.62;0.00;0.00;0.62;1.30;0.70;;;19.00;25.90;;;;;;2230192;62;20365;-60
2022/01/21 09:14:44;0.00;0.00;0.62;0.00;0.00;0.62;1.70;0.80;;;19.00;25.90;;;;;;2228756;62;20445;-60
2022/01/21 09:17:29;0.00;0.00;0.62;0.00;0.00;0.62;1.60;0.77;;;19.00;25.90;;;;;;2230339;62;20660;-59
2022/01/21 09:20:13;0.00;0.00;0.62;0.00;0.00;0.62;1.40;0.60;;;19.00;25.90;;;;;;2229950;62;20369;-60
2022/01/21 09:22:59;0.00;0.00;0.62;0.00;0.00;0.62;1.30;0.70;;;19.00;25.90;;;;;;2229678;62;20373;-60
2022/01/21 09:25:44;0.00;0.00;0.62;0.00;0.00;0.62;1.37;0.70;;;19.00;25.90;;;;;;2230012;62;20365;-59
2022/01/21 09:28:29;0.00;0.00;0.62;0.00;0.00;0.62;1.60;0.83;;;19.00;25.90;;;;;;2228624;62;20373;-60
2022/01/21 09:31:14;0.00;0.00;0.62;0.00;0.00;0.62;2.07;0.60;;;19.00;25.90;;;;;;2230461;62;20353;-60
2022/01/21 09:33:59;0.00;0.00;0.62;0.00;0.00;0.62;1.77;0.80;;;19.10;26.00;;;;;;2229668;62;20458;-59
2022/01/21 09:36:44;0.00;0.00;0.62;0.00;0.00;0.62;1.40;0.70;;;19.10;26.00;;;;;;2228607;62;20434;-60
2022/01/21 09:39:30;0.00;0.00;0.62;0.00;0.00;0.62;1.63;0.97;;;19.10;26.00;;;;;;2230424;62;20369;-60
2022/01/21 09:42:15;0.00;0.00;0.62;0.00;0.00;0.62;1.30;0.80;;;19.10;26.00;;;;;;2229961;62;20354;-59
2022/01/21 09:45:00;0.00;0.00;0.62;0.00;0.00;0.62;1.63;0.70;;;19.10;26.00;;;;;;2229270;62;20433;-59
2022/01/21 09:47:50;0.00;0.00;0.62;0.00;0.00;0.62;2.27;0.80;;;19.10;26.00;;;;;;2232607;62;20444;-58
2022/01/21 09:50:35;0.00;0.00;0.62;0.00;0.00;0.62;1.50;0.70;;;19.20;26.00;;;;;;2237069;62;20722;-60
2022/01/21 09:53:26;0.00;0.00;0.62;0.00;0.00;0.62;1.50;0.70;;;19.10;26.00;;;;;;2237247;62;20448;-60
2022/01/21 09:56:16;0.00;0.00;0.62;0.00;0.00;0.62;1.60;1.00;;;19.10;26.00;;;;;;2287607;58;20635;-60
2022/01/21 09:59:01;0.00;0.00;0.62;0.00;0.00;0.62;1.40;0.70;;;19.20;26.00;;;;;;2236333;62;20364;-61
2022/01/21 10:01:50;0.00;0.00;0.62;0.00;0.00;0.62;2.00;1.00;;;19.20;26.10;;;;;;2238132;62;20443;-61
2022/01/21 10:04:37;0.00;0.00;0.62;0.00;0.00;0.62;1.80;0.70;;;19.20;26.00;;;;;;2237818;62;20408;-60
2022/01/21 10:07:22;0.00;0.00;0.62;0.00;0.00;0.62;1.50;0.70;;;19.20;26.00;;;;;;2237267;62;20472;-60
2022/01/21 10:10:09;0.00;0.00;0.62;0.00;0.00;0.62;1.60;0.80;;;19.20;26.00;;;;;;2237672;62;20596;-60
2022/01/21 10:13:01;0.00;0.00;0.62;0.00;0.00;0.62;1.60;0.80;;;19.20;26.00;;;;;;2236675;62;20399;-60
2022/01/21 10:15:47;0.00;0.00;0.62;0.00;0.00;0.62;1.77;0.70;;;19.20;26.00;;;;;;2237745;62;20580;-60
2022/01/21 10:18:32;0.00;0.00;0.62;0.00;0.00;0.62;2.03;0.90;;;19.20;26.00;;;;;;2237536;62;20363;-60
2022/01/21 10:21:17;0.00;0.00;0.62;0.00;0.00;0.62;1.87;1.07;;;19.20;26.00;;;;;;2236775;62;20391;-60
2022/01/21 10:24:07;0.00;0.00;0.62;0.00;0.00;0.62;1.73;0.97;;;19.30;26.10;;;;;;2238027;62;20368;-60
2022/01/21 10:26:55;0.00;0.00;0.62;0.00;0.00;0.62;1.57;0.80;;;19.30;26.10;;;;;;2237420;62;20387;-61
2022/01/21 10:29:43;0.00;0.00;0.62;0.00;0.00;0.62;1.70;0.93;;;19.30;26.10;;;;;;2237472;62;20739;-61
2022/01/21 10:32:36;0.00;0.00;0.62;0.00;0.00;0.62;1.20;0.70;;;19.30;26.10;;;;;;2237191;62;20586;-61
2022/01/21 10:35:23;0.00;0.00;0.62;0.00;0.00;0.62;1.50;0.80;;;19.30;26.10;;;;;;2236566;62;20426;-60
2022/01/21 10:38:16;0.00;0.00;0.62;0.00;0.00;0.62;1.83;1.00;;;19.30;26.10;;;;;;2237901;62;20391;-60
2022/01/21 10:41:04;0.00;0.00;0.62;0.00;0.00;0.62;1.50;0.80;;;19.30;26.10;;;;;;2237914;62;20364;-60
2022/01/21 10:44:06;0.00;0.00;0.62;0.00;0.00;0.62;1.70;0.90;;;19.30;26.10;;;;;;2236662;62;20363;-61
2022/01/21 10:47:06;0.00;0.00;0.62;0.00;0.00;0.62;2.27;1.00;;;19.30;26.10;;;;;;2236916;62;20410;-61
2022/01/21 10:50:02;0.00;0.00;0.62;0.00;0.00;0.62;1.60;0.80;;;19.40;26.20;;;;;;2232724;62;20649;-60
2022/01/21 10:52:51;0.00;0.00;0.62;0.00;0.00;0.62;2.10;0.80;;;19.40;26.20;;;;;;2232200;62;20417;-61
2022/01/21 10:55:38;0.00;0.00;0.62;0.00;0.00;0.62;1.33;0.60;;;19.40;26.20;;;;;;2226712;62;20405;-60
2022/01/21 10:58:24;0.00;0.00;0.62;0.00;0.00;0.62;1.77;1.00;;;19.50;26.30;;;;;;2224791;62;20450;-61
2022/01/21 11:01:17;0.00;0.00;0.62;0.00;0.00;0.62;2.23;0.93;;;19.50;26.30;;;;;;2226240;62;20609;-59
2022/01/21 11:04:08;0.00;0.00;0.62;0.00;0.00;0.62;1.70;0.70;;;19.50;26.30;;;;;;2225658;62;20390;-61
2022/01/21 11:06:56;0.00;0.00;0.62;0.00;0.00;0.62;1.57;0.80;;;19.50;26.30;;;;;;2225412;62;20504;-61
2022/01/21 11:09:41;0.00;0.00;0.62;0.00;0.00;0.62;1.60;0.70;;;19.50;26.30;;;;;;2226039;62;20411;-61
2022/01/21 11:12:32;0.00;0.00;0.62;0.00;0.00;0.62;1.87;1.30;;;19.50;26.30;;;;;;2224718;62;20405;-60
2022/01/21 11:15:17;0.00;0.00;0.62;0.00;0.00;0.62;2.00;1.00;;;19.60;26.30;;;;;;2225985;62;20440;-60
2022/01/21 11:18:03;0.00;0.00;0.62;0.00;0.00;0.62;1.63;0.90;;;19.60;26.30;;;;;;2225990;62;20382;-61
2022/01/21 11:20:56;0.00;0.00;0.62;0.00;0.00;0.62;1.60;0.90;;;19.60;26.30;;;;;;2224753;62;20623;-61
2022/01/21 11:28:20;0.00;0.00;0.62;0.00;0.00;0.62;1.57;0.80;;;19.60;26.30;;;;;;2224341;62;20362;-61
2022/01/21 11:31:05;0.00;0.00;0.62;0.00;0.00;0.62;1.73;0.90;;;19.60;26.30;;;;;;2225497;62;20377;-61
2022/01/21 11:33:50;0.00;0.00;0.62;0.00;0.00;0.62;1.50;0.97;;;19.60;26.30;;;;;;2225697;62;20382;-61
2022/01/21 11:36:36;0.00;0.00;0.62;0.00;0.00;0.62;1.40;0.70;;;19.60;26.30;;;;;;2225886;62;20386;-58
2022/01/21 11:39:23;0.00;0.00;0.62;0.00;0.00;0.62;1.80;1.10;;;19.70;26.40;;;;;;2226178;62;20740;-60
2022/01/21 11:42:08;0.00;0.00;0.62;0.00;0.00;0.62;1.50;0.90;;;19.70;26.40;;;;;;2225458;62;20435;-62
2022/01/21 11:45:17;0.00;0.00;0.62;0.00;0.00;0.62;1.30;0.80;;;19.70;26.30;;;;;;2226854;62;20473;-60
2022/01/21 11:50:51;0.00;0.00;0.62;0.00;0.00;0.62;1.60;0.97;;;19.70;26.20;;;;;;2225918;62;20374;-58
2022/01/21 11:53:49;0.00;0.00;0.62;0.00;0.00;0.62;1.30;0.73;;;19.70;26.20;;;;;;2227786;62;20418;-59
2022/01/21 11:56:39;0.00;0.00;0.62;0.00;0.00;0.62;1.40;0.80;;;19.80;26.30;;;;;;2672460;46;20867;-60
2022/01/21 11:59:41;0.00;0.00;0.62;0.00;0.00;0.62;1.73;1.00;;;19.80;26.30;;;;;;2226736;62;20366;-59
2022/01/21 12:02:28;0.00;0.00;0.62;0.00;0.00;0.62;1.50;0.87;;;19.80;26.20;;;;;;2226450;62;20420;-59
2022/01/21 12:05:25;0.00;0.00;0.62;0.00;0.00;0.62;2.00;0.90;;;19.80;26.20;;;;;;2225227;62;20398;-59
2022/01/21 12:08:10;0.00;0.00;0.62;0.00;0.00;0.62;1.30;0.80;;;19.80;26.20;;;;;;2226442;62;20390;-60